Time;durP1;ratioP1;P1;durP2;ratioP2;P2;SDS_P1;SDS_P2;PMS_P1;PMS_P2;Temp;Humidity;BMP_temperature;BMP_pressure;BME280_temperature;BME280_humidity;BME280_pressure;Samples;Min_cycle;Max_cycle;Signal;HPM_P1;HPM_P2
2022/09/23 00:00:39;;;;;;;8.90;4.68;;;;;;;11.14;47.97;102023.38;7392647;19;20018;-55
2022/09/23 00:03:04;;;;;;;9.60;4.63;;;;;;;11.17;47.95;102023.56;7393150;19;20353;-55
2022/09/23 00:05:30;;;;;;;8.48;4.75;;;;;;;11.09;48.24;102016.94;7393130;19;19994;-56
2022/09/23 00:07:56;;;;;;;9.38;4.68;;;;;;;10.93;48.38;102013.78;7400612;19;20006;-56
2022/09/23 00:10:24;;;;;;;9.45;4.85;;;;;;;11.02;48.14;102016.59;7401119;19;20062;-56
2022/09/23 00:12:51;;;;;;;8.63;4.63;;;;;;;11.04;48.24;102010.81;7399863;19;20013;-56
2022/09/23 00:15:16;;;;;;;8.02;4.40;;;;;;;10.93;48.49;102011.06;7401485;19;20007;-56
2022/09/23 00:17:43;;;;;;;8.35;4.15;;;;;;;10.96;48.18;102012.38;7394804;19;20471;-56
2022/09/23 00:20:09;;;;;;;9.18;4.63;;;;;;;11.03;47.98;102010.00;7395291;19;20014;-57
2022/09/23 00:22:35;;;;;;;9.48;4.13;;;;;;;11.01;48.23;102008.72;7395648;19;20002;-58
2022/09/23 00:25:08;;;;;;;9.05;4.95;;;;;;;10.93;48.27;102002.88;7398618;19;20022;-56
2022/09/23 00:27:34;;;;;;;8.45;4.75;;;;;;;10.88;48.26;102004.94;7395915;19;20480;-56
2022/09/23 00:30:00;;;;;;;7.15;4.07;;;;;;;10.84;48.41;102003.97;7397693;19;20526;-56
2022/09/23 00:32:26;;;;;;;8.10;4.25;;;;;;;10.86;48.14;102001.72;7394219;19;20012;-56
2022/09/23 00:34:52;;;;;;;9.13;4.68;;;;;;;10.86;48.49;101997.06;7396727;19;19998;-56
2022/09/23 00:37:19;;;;;;;8.77;4.90;;;;;;;10.69;48.51;101995.03;7396782;19;19995;-56
2022/09/23 00:39:45;;;;;;;11.05;4.95;;;;;;;10.70;49.09;101987.63;7397620;19;19991;-55
2022/09/23 00:42:15;;;;;;;9.13;4.75;;;;;;;10.79;48.52;101991.25;7396139;19;20002;-55
2022/09/23 00:44:53;;;;;;;7.28;4.35;;;;;;;10.72;48.57;101991.66;7397573;19;20008;-55
2022/09/23 00:47:38;;;;;;;11.88;4.82;;;;;;;10.82;48.22;101987.06;7396333;19;20065;-56
2022/09/23 00:50:28;;;;;;;9.18;4.70;;;;;;;10.81;48.12;101989.00;7397426;19;20089;-55
2022/09/23 00:52:56;;;;;;;8.93;5.28;;;;;;;10.86;47.79;101988.88;7393946;19;20023;-56
2022/09/23 00:55:25;;;;;;;10.77;5.68;;;;;;;10.60;48.72;101980.50;7399281;19;20430;-55
2022/09/23 00:57:54;;;;;;;9.80;5.35;;;;;;;10.55;48.58;101977.91;7395986;19;19995;-56
2022/09/23 01:00:20;;;;;;;10.75;5.43;;;;;;;10.68;48.41;101974.28;7395509;19;20002;-55
2022/09/23 01:02:46;;;;;;;9.43;5.40;;;;;;;10.65;48.11;101969.47;7395147;19;20003;-55
2022/09/23 01:05:13;;;;;;;10.07;5.03;;;;;;;10.73;48.45;101971.41;7394578;19;20338;-55
2022/09/23 01:07:39;;;;;;;11.35;4.38;;;;;;;10.72;48.50;101967.09;7395698;19;20334;-55
2022/09/23 01:10:06;;;;;;;9.32;4.80;;;;;;;10.71;48.28;101962.75;7396588;19;19998;-55
2022/09/23 01:12:48;;;;;;;8.70;4.80;;;;;;;10.68;48.51;101963.38;7395350;19;20066;-55
2022/09/23 01:15:45;;;;;;;8.73;4.57;;;;;;;10.29;49.71;101961.38;7395664;19;20389;-56
2022/09/23 01:18:20;;;;;;;9.45;4.45;;;;;;;10.11;49.90;101955.00;7396715;19;20632;-56
2022/09/23 01:21:03;;;;;;;10.50;4.45;;;;;;;10.21;50.16;101956.69;7393559;19;20003;-56
2022/09/23 01:23:51;;;;;;;8.07;4.23;;;;;;;10.44;49.14;101955.53;7394021;19;20384;-55
2022/09/23 01:26:51;;;;;;;6.93;3.97;;;;;;;10.56;49.10;101944.84;7393010;19;20661;-55
2022/09/23 01:29:22;;;;;;;9.20;4.10;;;;;;;10.67;48.62;101945.38;7397647;19;20002;-54
2022/09/23 01:32:02;;;;;;;7.82;4.22;;;;;;;10.57;48.75;101941.00;7395407;19;20044;-55
2022/09/23 01:34:41;;;;;;;7.93;4.20;;;;;;;10.55;48.69;101942.41;7396125;19;20009;-53
2022/09/23 01:37:10;;;;;;;7.60;4.03;;;;;;;10.56;48.66;101939.38;7394183;19;20069;-55
2022/09/23 01:39:44;;;;;;;9.18;4.70;;;;;;;10.50;48.79;101934.34;7395183;19;20070;-54
2022/09/23 01:42:16;;;;;;;8.63;4.40;;;;;;;10.48;48.96;101936.59;7394538;19;19995;-55
2022/09/23 01:44:52;;;;;;;6.40;3.80;;;;;;;10.34;49.21;101937.50;7394441;19;20002;-55
2022/09/23 01:47:36;;;;;;;7.10;3.58;;;;;;;10.55;48.66;101942.41;7393798;19;19999;-55
2022/09/23 01:50:54;;;;;;;9.20;4.18;;;;;;;10.48;48.47;101936.59;7393659;19;20055;-55
2022/09/23 01:52:54;;;;;;;8.32;4.20;;;;;;;10.48;48.56;101936.59;7390910;19;19991;-56
2022/09/23 01:55:25;;;;;;;6.88;3.97;;;;;;;10.47;48.49;101940.44;7396433;19;20038;-56
2022/09/23 01:58:02;;;;;;;6.75;3.53;;;;;;;10.58;48.28;101930.88;7392762;19;20070;-55
2022/09/23 02:00:33;;;;;;;7.68;4.35;;;;;;;10.50;48.42;101937.09;7393719;19;20006;-55
2022/09/23 02:03:16;;;;;;;7.47;3.97;;;;;;;10.48;48.80;101931.94;7392529;19;20339;-55
2022/09/23 02:05:50;;;;;;;7.72;3.92;;;;;;;10.56;48.11;101933.13;7394832;19;19999;-54
2022/09/23 02:08:22;;;;;;;9.77;4.20;;;;;;;10.59;48.08;101927.03;7393143;19;19998;-55
2022/09/23 02:11:20;;;;;;;6.75;3.78;;;;;;;10.57;47.93;101932.00;7394221;19;20457;-56
2022/09/23 02:13:51;;;;;;;7.38;3.83;;;;;;;10.50;48.12;101937.91;7391938;19;19995;-55
2022/09/23 02:16:25;;;;;;;9.35;3.85;;;;;;;10.46;48.08;101933.38;7394232;19;20003;-54
2022/09/23 02:19:02;;;;;;;7.68;4.07;;;;;;;10.41;48.08;101928.84;7368231;19;20003;-55
2022/09/23 02:21:37;;;;;;;7.40;3.75;;;;;;;10.38;48.12;101924.03;7391408;19;19998;-55
2022/09/23 02:24:15;;;;;;;7.65;3.95;;;;;;;10.41;48.23;101920.66;7393406;19;20003;-55
2022/09/23 02:27:00;;;;;;;8.23;3.45;;;;;;;10.51;48.28;101919.59;7392860;19;20003;-54
2022/09/23 02:29:37;;;;;;;9.85;3.80;;;;;;;10.51;48.33;101920.41;7391234;19;20078;-55
2022/09/23 02:42:22;;;;;;;8.18;3.70;;;;;;;10.46;48.20;101911.56;7335858;19;19927;-61
2022/09/23 02:44:47;;;;;;;7.40;3.67;;;;;;;10.45;48.33;101910.75;7392355;19;20009;-61
2022/09/23 02:47:16;;;;;;;8.15;3.67;;;;;;;10.48;48.42;101915.56;7392795;19;19991;-61
2022/09/23 02:49:41;;;;;;;8.20;4.28;;;;;;;10.47;48.32;101913.97;7392879;19;20003;-61
2022/09/23 02:52:07;;;;;;;7.88;3.65;;;;;;;10.48;48.31;101914.78;7392715;19;20074;-60
2022/09/23 02:54:34;;;;;;;8.35;4.00;;;;;;;10.45;48.36;101910.75;7393403;19;20122;-60
2022/09/23 02:57:05;;;;;;;7.57;3.38;;;;;;;10.45;48.47;101904.47;7391632;19;20500;-60
2022/09/23 02:59:32;;;;;;;7.07;3.63;;;;;;;10.52;48.06;101899.38;7394793;19;19995;-60
2022/09/23 03:02:13;;;;;;;7.53;3.50;;;;;;;10.60;47.99;101901.31;7394766;19;20007;-60
2022/09/23 03:04:46;;;;;;;8.48;3.72;;;;;;;10.40;48.57;101896.41;7392404;19;20733;-60
2022/09/23 03:07:18;;;;;;;12.02;4.60;;;;;;;10.45;48.36;101893.56;7391199;19;19998;-60
2022/09/23 03:09:56;;;;;;;9.15;4.10;;;;;;;10.52;48.31;101892.00;7391827;19;20014;-61
2022/09/23 03:12:34;;;;;;;8.63;4.10;;;;;;;10.47;48.35;101894.03;7393707;19;20006;-60
2022/09/23 03:15:20;;;;;;;9.05;4.40;;;;;;;10.27;49.01;101898.94;7396635;19;20003;-60
2022/09/23 03:17:56;;;;;;;7.90;3.95;;;;;;;10.20;49.34;101890.38;7394809;19;20022;-60
2022/09/23 03:20:33;;;;;;;9.35;4.05;;;;;;;10.29;48.98;101884.97;7395197;19;20010;-59
2022/09/23 03:23:05;;;;;;;6.65;3.90;;;;;;;10.45;48.60;101891.66;7395808;19;20011;-60
2022/09/23 03:25:36;;;;;;;7.28;3.78;;;;;;;10.49;48.19;101883.63;7393690;19;19998;-59
2022/09/23 03:28:03;;;;;;;7.72;3.83;;;;;;;10.45;48.61;101888.09;7394656;19;20006;-60
2022/09/23 03:30:34;;;;;;;9.07;3.75;;;;;;;10.47;48.80;101883.94;7394472;19;20014;-60
2022/09/23 03:33:03;;;;;;;8.85;3.63;;;;;;;10.38;48.42;101875.72;7395401;19;20011;-60
2022/09/23 03:36:48;;;;;;;6.68;3.30;;;;;;;10.27;48.64;101865.38;7395232;19;20062;-59
2022/09/23 03:38:23;;;;;;;6.75;3.55;;;;;;;10.25;48.91;101876.63;7392542;19;20029;-60
2022/09/23 03:40:52;;;;;;;6.82;3.42;;;;;;;10.28;48.42;101878.69;7388588;19;20134;-60
2022/09/23 03:43:17;;;;;;;5.07;3.20;;;;;;;10.27;48.57;101871.66;7394608;19;19998;-60
2022/09/23 03:45:45;;;;;;;9.18;3.30;;;;;;;10.22;48.74;101863.59;7392534;19;20012;-60
2022/09/23 03:48:10;;;;;;;6.25;3.50;;;;;;;10.27;48.66;101862.63;7393751;19;20358;-60
2022/09/23 03:50:36;;;;;;;7.63;3.42;;;;;;;10.25;48.65;101862.97;7393424;19;20058;-60
2022/09/23 03:53:01;;;;;;;6.20;3.47;;;;;;;10.26;48.61;101856.38;7394380;19;20054;-60
2022/09/23 03:55:27;;;;;;;5.80;3.17;;;;;;;10.26;49.04;101859.13;7394542;19;20006;-59
2022/09/23 03:57:54;;;;;;;7.80;3.50;;;;;;;10.22;49.00;101857.31;7393635;19;20003;-60
2022/09/23 04:00:19;;;;;;;10.40;3.83;;;;;;;10.15;48.84;101855.03;7391370;19;19998;-60
2022/09/23 04:02:45;;;;;;;7.85;3.60;;;;;;;10.15;49.22;101852.31;7393330;19;20183;-60
2022/09/23 04:05:12;;;;;;;7.93;3.63;;;;;;;10.25;48.76;101846.59;7393157;19;19999;-60
2022/09/23 04:07:38;;;;;;;7.10;3.40;;;;;;;10.26;48.88;101842.75;7393559;19;20010;-60
2022/09/23 04:10:05;;;;;;;6.38;3.33;;;;;;;10.34;48.51;101841.97;7394110;19;20010;-60
2022/09/23 04:12:31;;;;;;;7.40;3.63;;;;;;;10.40;48.69;101842.63;7391976;19;20070;-60
2022/09/23 04:14:57;;;;;;;8.40;3.58;;;;;;;10.29;48.58;101836.66;7392396;19;20014;-60
2022/09/23 04:17:22;;;;;;;7.95;3.92;;;;;;;10.32;48.76;101835.25;7392726;19;19998;-60
2022/09/23 04:19:48;;;;;;;8.35;4.20;;;;;;;10.11;49.09;101838.50;7391708;19;19994;-60
2022/09/23 04:22:13;;;;;;;6.93;4.00;;;;;;;10.01;49.37;101834.09;7391791;19;20045;-60
2022/09/23 04:24:39;;;;;;;7.25;3.70;;;;;;;9.76;49.89;101832.81;7393921;19;20123;-60
2022/09/23 04:27:04;;;;;;;6.57;3.53;;;;;;;9.98;49.54;101831.19;7393511;19;20479;-60
2022/09/23 04:29:30;;;;;;;7.50;3.80;;;;;;;10.05;48.90;101814.38;7393339;19;20023;-60
2022/09/23 04:31:56;;;;;;;7.15;3.90;;;;;;;10.08;49.06;101816.50;7390472;19;20518;-60
2022/09/23 04:34:22;;;;;;;8.85;4.05;;;;;;;10.21;48.63;101812.06;7392903;19;20070;-60
2022/09/23 04:36:48;;;;;;;7.50;3.95;;;;;;;10.13;48.75;101817.16;7392672;19;20002;-60
2022/09/23 04:39:15;;;;;;;8.52;3.50;;;;;;;10.10;48.80;101816.97;7391560;19;20207;-60
2022/09/23 04:41:41;;;;;;;10.07;4.28;;;;;;;9.85;49.52;101822.00;7389198;19;20020;-60
2022/09/23 04:44:07;;;;;;;7.15;3.78;;;;;;;9.76;49.60;101823.84;7392302;19;20035;-60
2022/09/23 04:46:33;;;;;;;8.75;4.47;;;;;;;9.66;49.80;101813.19;7393487;19;20030;-60
2022/09/23 04:48:58;;;;;;;8.30;4.28;;;;;;;9.52;50.64;101822.22;7393079;19;20445;-60
2022/09/23 04:51:25;;;;;;;6.57;3.70;;;;;;;9.82;50.01;101817.16;7391740;19;19991;-59
2022/09/23 04:53:52;;;;;;;8.30;3.90;;;;;;;10.00;49.22;101810.69;7399731;19;20014;-60
2022/09/23 04:56:24;;;;;;;7.78;3.47;;;;;;;9.98;49.30;101812.94;7398120;19;20039;-60
2022/09/23 04:58:50;;;;;;;6.18;3.45;;;;;;;9.78;49.67;101808.81;7399620;19;20439;-60
2022/09/23 05:01:25;;;;;;;9.70;3.83;;;;;;;9.92;49.49;101805.97;7395859;19;20016;-60
2022/09/23 05:03:53;;;;;;;6.93;3.90;;;;;;;9.93;49.46;101810.31;7399309;19;20010;-60
2022/09/23 05:06:19;;;;;;;8.02;3.45;;;;;;;9.95;49.44;101802.63;7398344;19;20002;-60
2022/09/23 05:08:47;;;;;;;7.75;3.55;;;;;;;9.81;49.86;101810.09;7397885;19;20013;-60
2022/09/23 05:11:13;;;;;;;6.80;3.50;;;;;;;10.00;49.40;101802.50;7398235;19;20218;-60
2022/09/23 05:13:38;;;;;;;6.15;3.20;;;;;;;9.97;49.51;101807.78;7398040;19;20457;-60
2022/09/23 05:16:06;;;;;;;5.97;3.47;;;;;;;10.09;49.14;101807.19;7397642;19;19995;-60
2022/09/23 05:18:34;;;;;;;10.75;3.22;;;;;;;10.07;49.26;101806.69;7399034;19;20012;-60
2022/09/23 05:21:00;;;;;;;6.60;3.33;;;;;;;10.03;49.31;101805.72;7398069;19;20054;-60
2022/09/23 05:23:26;;;;;;;8.63;3.00;;;;;;;10.05;48.88;101793.38;7399470;19;20013;-60
2022/09/23 05:26:03;;;;;;;9.15;3.65;;;;;;;9.93;49.30;101804.06;7399955;19;20023;-60
2022/09/23 05:28:31;;;;;;;6.90;3.45;;;;;;;9.77;49.42;101798.19;7398558;19;20423;-60
2022/09/23 05:31:15;;;;;;;5.95;2.95;;;;;;;9.84;49.55;101804.00;7397136;19;20002;-60
2022/09/23 05:33:46;;;;;;;6.72;3.47;;;;;;;9.90;49.34;101802.78;7399250;19;20074;-60
2022/09/23 05:36:12;;;;;;;7.47;3.20;;;;;;;9.70;49.71;101800.53;7398234;19;20002;-60
2022/09/23 05:38:39;;;;;;;7.22;3.70;;;;;;;9.51;50.23;101800.72;7394489;19;19999;-60
2022/09/23 05:41:07;;;;;;;7.35;3.80;;;;;;;9.54;50.41;101805.53;7393597;19;20014;-60
2022/09/23 05:43:34;;;;;;;6.20;3.25;;;;;;;9.79;50.07;101810.38;7395518;19;20039;-60
2022/09/23 05:46:11;;;;;;;6.38;3.20;;;;;;;9.90;49.54;101804.66;7395703;19;20007;-60
2022/09/23 05:48:38;;;;;;;8.48;4.03;;;;;;;9.86;49.40;101799.03;7395024;19;20003;-60
2022/09/23 05:51:11;;;;;;;8.82;3.85;;;;;;;9.95;48.94;101799.09;7394207;19;20007;-60
2022/09/23 05:53:38;;;;;;;8.35;3.58;;;;;;;9.94;49.42;101797.50;7393165;19;20148;-59
2022/09/23 05:56:05;;;;;;;5.85;3.28;;;;;;;9.99;49.21;101800.09;7398575;19;20003;-61
2022/09/23 05:58:31;;;;;;;7.68;3.67;;;;;;;9.96;48.96;101801.50;7394673;19;19999;-60
2022/09/23 06:00:56;;;;;;;8.27;3.63;;;;;;;10.01;49.15;101800.56;7392593;19;19999;-61
2022/09/23 06:03:23;;;;;;;13.15;4.53;;;;;;;10.06;48.92;101802.38;7391417;19;20010;-60
2022/09/23 06:05:55;;;;;;;11.18;4.45;;;;;;;9.96;49.28;101801.50;7394512;19;20025;-61
2022/09/23 06:08:21;;;;;;;7.57;3.45;;;;;;;10.05;48.96;101792.56;7393781;19;20003;-60
2022/09/23 06:10:48;;;;;;;8.23;3.70;;;;;;;10.11;48.94;101797.56;7393074;19;20005;-61
2022/09/23 06:13:14;;;;;;;9.85;4.20;;;;;;;10.04;48.91;101801.88;7394961;19;20017;-61
2022/09/23 06:15:42;;;;;;;9.13;3.90;;;;;;;10.10;49.29;101801.44;7394653;19;20011;-62
2022/09/23 06:18:08;;;;;;;8.75;4.40;;;;;;;10.24;48.90;101798.59;7394704;19;20026;-62
2022/09/23 06:20:36;;;;;;;7.25;3.72;;;;;;;10.03;49.49;101802.97;7394875;19;20573;-63
2022/09/23 06:23:07;;;;;;;8.65;4.28;;;;;;;9.89;49.75;101803.88;7393879;19;20003;-63
2022/09/23 06:25:34;;;;;;;10.35;4.25;;;;;;;9.88;50.13;101810.44;7394641;19;20054;-64
2022/09/23 06:28:00;;;;;;;7.03;3.80;;;;;;;9.92;49.93;101811.44;7393102;19;20011;-63
2022/09/23 06:30:26;;;;;;;8.75;3.75;;;;;;;9.85;50.38;101810.25;7392537;19;20427;-63
2022/09/23 06:32:54;;;;;;;7.82;4.00;;;;;;;9.99;50.37;101814.53;7393522;19;20005;-63
2022/09/23 06:35:26;;;;;;;7.78;3.70;;;;;;;10.04;50.39;101810.06;7393698;19;20087;-62
2022/09/23 06:37:53;;;;;;;9.07;4.20;;;;;;;10.34;49.87;101811.16;7391531;19;20029;-61
2022/09/23 06:40:20;;;;;;;5.97;3.60;;;;;;;10.38;50.25;101810.22;7392061;19;20481;-62
2022/09/23 06:42:46;;;;;;;9.52;4.40;;;;;;;10.60;49.94;101819.44;7392910;19;20006;-61
2022/09/23 06:45:13;;;;;;;8.88;4.22;;;;;;;10.74;49.73;101814.66;7393868;19;19995;-61
2022/09/23 06:47:40;;;;;;;8.68;4.22;;;;;;;10.88;49.36;101816.47;7391086;19;20028;-62
2022/09/23 06:50:06;;;;;;;9.38;4.47;;;;;;;10.94;49.46;101812.50;7392917;19;20007;-62
2022/09/23 06:52:32;;;;;;;9.45;3.75;;;;;;;11.03;49.24;101815.22;7391228;19;20110;-61
2022/09/23 06:54:57;;;;;;;8.18;3.78;;;;;;;11.24;48.22;101816.22;7392617;19;20385;-62
2022/09/23 06:57:23;;;;;;;8.98;3.22;;;;;;;11.40;47.75;101812.97;7392252;19;20501;-60
2022/09/23 06:59:49;;;;;;;6.50;3.53;;;;;;;11.48;47.60;101807.50;7392197;19;19999;-62
2022/09/23 07:02:15;;;;;;;7.95;3.95;;;;;;;11.52;47.58;101810.38;7390815;19;19999;-62
2022/09/23 07:04:40;;;;;;;7.97;3.50;;;;;;;11.54;47.09;101801.88;7393264;19;19999;-63
2022/09/23 07:07:06;;;;;;;7.95;3.25;;;;;;;11.62;46.78;101804.63;7392159;19;20031;-63
2022/09/23 07:09:31;;;;;;;9.57;3.28;;;;;;;11.65;46.93;101805.88;7392398;19;20006;-63
2022/09/23 07:11:57;;;;;;;5.97;3.00;;;;;;;11.72;46.81;101802.66;7391157;19;20497;-62
2022/09/23 07:14:23;;;;;;;7.93;3.55;;;;;;;11.83;46.58;101810.19;7392689;19;20002;-63
2022/09/23 07:16:50;;;;;;;8.80;3.20;;;;;;;11.81;46.55;101806.19;7390564;19;20016;-62
2022/09/23 07:19:16;;;;;;;6.57;3.22;;;;;;;11.82;46.77;101808.59;7390879;19;19999;-63
2022/09/23 07:21:41;;;;;;;10.13;3.10;;;;;;;11.85;46.65;101804.44;7390393;19;20054;-63
2022/09/23 07:24:07;;;;;;;7.53;3.30;;;;;;;11.94;46.39;101804.41;7390793;19;20002;-63
2022/09/23 07:26:33;;;;;;;6.95;2.65;;;;;;;12.03;45.98;101807.94;7391720;19;20066;-62
2022/09/23 07:29:03;;;;;;;9.15;3.08;;;;;;;12.12;45.99;101807.88;7390861;19;19999;-62
2022/09/23 07:31:34;;;;;;;12.82;3.20;;;;;;;12.15;45.67;101816.25;7391492;19;20013;-63
2022/09/23 07:34:00;;;;;;;6.57;2.88;;;;;;;12.12;45.71;101805.94;7391975;19;20003;-63
2022/09/23 07:36:27;;;;;;;8.52;2.85;;;;;;;12.20;45.41;101805.13;7392796;19;20105;-63
2022/09/23 07:38:59;;;;;;;6.60;2.88;;;;;;;12.36;45.26;101807.34;7391218;19;20063;-63
2022/09/23 07:41:27;;;;;;;8.75;2.97;;;;;;;12.43;45.38;101804.88;7390483;19;19995;-63
2022/09/23 07:43:58;;;;;;;6.28;2.75;;;;;;;12.44;44.99;101803.75;7391235;19;20007;-63
2022/09/23 07:46:33;;;;;;;5.85;2.45;;;;;;;12.48;45.18;101801.16;7391268;19;20005;-63
2022/09/23 07:49:00;;;;;;;6.47;2.40;;;;;;;12.49;44.99;101791.78;7389498;19;20016;-62
2022/09/23 07:51:37;;;;;;;6.95;2.63;;;;;;;12.58;44.81;101798.81;7389093;19;20114;-62
2022/09/23 07:54:10;;;;;;;15.48;2.95;;;;;;;12.60;44.46;101791.06;7391471;19;20017;-62
2022/09/23 07:56:36;;;;;;;7.43;2.63;;;;;;;12.62;44.51;101789.94;7394903;19;20005;-62
2022/09/23 07:59:03;;;;;;;6.35;2.30;;;;;;;12.73;44.16;101789.22;7389393;19;20021;-62
2022/09/23 08:01:31;;;;;;;6.13;2.50;;;;;;;12.74;44.28;101792.75;7388285;19;19991;-62
2022/09/23 08:04:01;;;;;;;8.48;2.53;;;;;;;12.75;44.19;101788.91;7390982;19;20002;-62
2022/09/23 08:06:26;;;;;;;4.10;2.03;;;;;;;12.80;44.19;101788.72;7389152;19;20002;-62
2022/09/23 08:08:52;;;;;;;6.97;2.63;;;;;;;12.84;44.48;101786.94;7388287;19;20066;-62
2022/09/23 08:11:18;;;;;;;6.32;2.47;;;;;;;13.01;44.02;101785.19;7389432;19;20666;-62
2022/09/23 08:13:43;;;;;;;8.80;2.70;;;;;;;12.98;43.86;101780.41;7391498;19;20018;-62
2022/09/23 08:16:09;;;;;;;6.03;2.38;;;;;;;13.11;43.72;101784.81;7391318;19;20319;-62
2022/09/23 08:18:35;;;;;;;6.38;2.35;;;;;;;13.20;43.63;101782.00;7388157;19;20334;-62
2022/09/23 08:21:01;;;;;;;4.55;2.38;;;;;;;13.27;43.43;101783.06;7389756;19;20010;-62
2022/09/23 08:23:32;;;;;;;6.75;2.67;;;;;;;13.27;43.51;101783.06;7390906;19;20005;-62
2022/09/23 08:26:00;;;;;;;9.10;2.58;;;;;;;13.30;43.14;101782.38;7391243;19;20009;-62
2022/09/23 08:28:26;;;;;;;10.68;2.95;;;;;;;13.25;43.57;101779.06;7395794;19;19998;-63
2022/09/23 08:30:52;;;;;;;8.98;2.28;;;;;;;13.41;43.31;101787.44;7395464;19;20054;-62
2022/09/23 08:33:18;;;;;;;6.85;2.70;;;;;;;13.50;43.41;101788.19;7397534;19;19995;-62
2022/09/23 08:35:44;;;;;;;6.43;2.70;;;;;;;13.57;43.30;101780.19;7397920;19;19991;-62
2022/09/23 08:38:09;;;;;;;5.80;2.50;;;;;;;13.62;43.44;101781.94;7395042;19;19995;-62
2022/09/23 08:40:38;;;;;;;5.35;2.70;;;;;;;13.70;43.30;101781.84;7396247;19;20003;-62
2022/09/23 08:43:16;;;;;;;5.20;2.30;;;;;;;13.70;43.05;101779.09;7396561;19;20363;-61
2022/09/23 08:45:44;;;;;;;6.00;2.75;;;;;;;13.83;43.26;101770.94;7397273;19;20450;-61
2022/09/23 08:48:13;;;;;;;7.57;2.78;;;;;;;13.92;43.23;101779.84;7397177;19;19995;-61
2022/09/23 08:50:47;;;;;;;5.78;2.75;;;;;;;13.98;43.31;101774.97;7395066;19;19998;-61
2022/09/23 08:53:26;;;;;;;;;;;;;;;14.16;43.00;101767.31;7397804;19;20009;-62
2022/09/23 08:55:54;;;;;;;4.55;2.67;;;;;;;14.27;42.92;101773.94;7399876;19;19914;-62
2022/09/23 08:58:38;;;;;;;6.50;2.70;;;;;;;14.32;42.81;101759.97;7395935;19;20466;-62
2022/09/23 09:01:32;;;;;;;2.95;2.17;;;;;;;14.43;42.82;101769.38;7393954;19;19994;-62
2022/09/23 09:04:03;;;;;;;;;;;;;;;14.54;42.47;101763.41;7396091;19;20360;-65
2022/09/23 09:06:39;;;;;;;8.07;3.15;;;;;;;14.62;42.58;101765.22;7389858;19;19935;-63
2022/09/23 09:09:16;;;;;;;6.20;2.50;;;;;;;14.69;42.53;101762.69;7396678;19;20003;-62
2022/09/23 09:11:46;;;;;;;6.15;2.78;;;;;;;14.78;42.37;101754.38;7396726;19;20006;-62
2022/09/23 09:14:18;;;;;;;7.22;2.50;;;;;;;14.84;42.52;101752.16;7396073;19;20347;-62
2022/09/23 09:16:57;;;;;;;5.68;2.13;;;;;;;14.94;42.20;101751.66;7396291;19;19990;-62
2022/09/23 09:19:54;;;;;;;8.23;2.40;;;;;;;14.99;42.04;101754.19;7396311;19;20002;-62
2022/09/23 09:22:32;;;;;;;8.15;2.38;;;;;;;15.10;42.23;101760.00;7395063;19;19999;-62
2022/09/23 09:25:19;;;;;;;7.40;2.85;;;;;;;15.13;41.74;101754.59;7394886;19;19995;-62
2022/09/23 09:27:46;;;;;;;4.97;2.40;;;;;;;15.16;41.49;101756.66;7395329;19;20019;-62
2022/09/23 09:30:13;;;;;;;8.25;2.30;;;;;;;15.26;41.31;101740.78;7394332;19;19995;-62
2022/09/23 09:33:00;;;;;;;6.38;2.45;;;;;;;15.28;41.40;101741.22;7396806;19;19997;-62
2022/09/23 09:35:37;;;;;;;6.25;2.25;;;;;;;15.34;41.43;101737.06;7394714;19;20026;-61
2022/09/23 09:38:04;;;;;;;4.25;2.35;;;;;;;15.33;41.91;101741.78;7394655;19;20001;-62
2022/09/23 09:40:31;;;;;;;6.97;2.30;;;;;;;15.41;41.39;101731.75;7394810;19;20066;-62
2022/09/23 09:42:57;;;;;;;8.15;2.70;;;;;;;15.35;41.15;101727.69;7393963;19;19998;-62
2022/09/23 09:45:38;;;;;;;7.00;2.42;;;;;;;15.42;41.04;101727.88;7394115;19;20291;-62
2022/09/23 09:48:22;;;;;;;6.07;2.30;;;;;;;15.50;41.27;101718.66;7395051;19;20002;-62
2022/09/23 09:50:50;;;;;;;7.55;2.40;;;;;;;15.57;40.88;101714.50;7394060;19;20027;-62
2022/09/23 09:53:28;;;;;;;5.53;2.33;;;;;;;15.58;40.94;101724.34;7396436;19;20456;-62
2022/09/23 09:56:06;;;;;;;5.40;2.33;;;;;;;15.57;40.80;101717.25;7395947;19;19995;-62
2022/09/23 09:58:40;;;;;;;7.00;2.40;;;;;;;15.61;40.33;101716.16;7394439;19;20016;-62
2022/09/23 10:01:06;;;;;;;5.05;2.22;;;;;;;15.64;40.40;101710.00;7393182;19;20344;-61
2022/09/23 10:03:37;;;;;;;5.35;2.25;;;;;;;15.64;40.49;101712.75;7394904;19;19994;-61
2022/09/23 10:06:14;;;;;;;6.25;2.25;;;;;;;15.71;40.23;101706.63;7392981;19;20034;-62
2022/09/23 10:08:39;;;;;;;8.15;2.03;;;;;;;15.77;40.51;101696.16;7394778;19;19994;-62
2022/09/23 10:11:17;;;;;;;6.60;2.38;;;;;;;15.77;40.17;101696.97;7394244;19;20001;-62
2022/09/23 10:14:00;;;;;;;5.55;2.38;;;;;;;15.82;39.99;101696.69;7395606;19;20330;-62
2022/09/23 10:16:26;;;;;;;5.90;2.47;;;;;;;15.88;40.11;101697.19;7392674;19;20002;-61
2022/09/23 10:18:55;;;;;;;5.53;2.40;;;;;;;15.92;40.41;101696.16;7392267;19;20474;-63
2022/09/23 10:21:23;;;;;;;7.07;2.75;;;;;;;15.98;40.77;101688.44;7393563;19;20025;-64
2022/09/23 10:23:51;;;;;;;7.35;2.10;;;;;;;16.01;40.42;101687.69;7392328;19;20023;-64
2022/09/23 10:26:32;;;;;;;4.63;2.22;;;;;;;16.08;40.11;101692.56;7391165;19;20009;-64
2022/09/23 10:29:17;;;;;;;4.88;2.28;;;;;;;16.08;40.09;101689.81;7394573;19;20009;-63
2022/09/23 10:31:52;;;;;;;5.22;2.72;;;;;;;16.13;40.13;101688.75;7392066;19;20006;-64
2022/09/23 10:34:27;;;;;;;6.85;2.78;;;;;;;16.17;39.52;101693.19;7393701;19;20018;-63
2022/09/23 10:37:12;;;;;;;5.72;2.40;;;;;;;16.27;39.76;101695.38;7392894;19;20010;-63
2022/09/23 10:48:53;;;;;;;6.35;2.70;;;;;;;16.29;39.72;101687.53;7392671;19;20047;-64
2022/09/23 10:51:30;;;;;;;8.43;2.72;;;;;;;16.36;39.93;101686.13;7390835;19;20023;-64
2022/09/23 10:54:31;;;;;;;4.22;2.40;;;;;;;16.43;39.14;101686.28;7392469;19;20069;-64
2022/09/23 10:57:36;;;;;;;6.32;2.58;;;;;;;16.47;39.60;101681.69;7390066;19;20014;-64
2022/09/23 11:00:03;;;;;;;6.03;2.70;;;;;;;16.58;39.21;101674.41;7392059;19;20485;-64
2022/09/23 11:03:01;;;;;;;4.47;2.10;;;;;;;16.65;39.26;101669.06;7393507;19;20041;-63
2022/09/23 11:05:33;;;;;;;6.65;2.67;;;;;;;16.74;39.29;101679.09;7389618;19;20006;-63
2022/09/23 11:08:04;;;;;;;6.55;2.85;;;;;;;16.78;39.24;101679.94;7392762;19;19998;-64
2022/09/23 11:10:49;;;;;;;6.22;2.40;;;;;;;16.72;39.05;101682.19;7392453;19;19990;-64
2022/09/23 11:13:41;;;;;;;7.57;2.75;;;;;;;16.73;39.17;101670.00;7392788;19;19991;-64
2022/09/23 11:16:27;;;;;;;5.55;2.42;;;;;;;16.71;39.21;101674.28;7391340;19;20075;-64
2022/09/23 11:19:15;;;;;;;6.40;2.53;;;;;;;16.73;38.86;101658.97;7390007;19;19998;-64
2022/09/23 11:21:43;;;;;;;5.32;2.70;;;;;;;16.79;39.35;101662.25;7391049;19;20043;-64
2022/09/23 11:24:28;;;;;;;6.38;2.47;;;;;;;16.89;38.65;101664.41;7390700;19;19999;-64
2022/09/23 11:27:04;;;;;;;5.25;2.65;;;;;;;17.00;38.80;101659.91;7391309;19;20340;-64
2022/09/23 11:29:41;;;;;;;6.85;2.53;;;;;;;17.09;38.69;101653.38;7392286;19;19998;-64
2022/09/23 11:32:28;;;;;;;7.63;2.92;;;;;;;17.15;38.50;101654.66;7391850;19;20086;-64
2022/09/23 11:35:19;;;;;;;7.03;3.00;;;;;;;17.07;38.18;101650.97;7391377;19;20324;-64
2022/09/23 11:37:50;;;;;;;8.68;2.75;;;;;;;17.10;38.63;101643.91;7391847;19;20475;-65
2022/09/23 11:40:38;;;;;;;6.32;2.70;;;;;;;17.18;38.84;101642.88;7391877;19;20526;-62
2022/09/23 11:43:23;;;;;;;6.97;2.92;;;;;;;17.20;38.81;101630.34;7391503;19;20003;-62
2022/09/23 11:45:59;;;;;;;7.47;3.13;;;;;;;17.24;38.60;101626.84;7390680;19;20006;-62
2022/09/23 11:49:06;;;;;;;7.97;3.58;;;;;;;17.25;38.83;101631.19;7390796;19;20003;-63
2022/09/23 11:51:47;;;;;;;9.90;3.17;;;;;;;17.27;39.27;101626.09;7388734;19;20044;-62
2022/09/23 11:54:25;;;;;;;8.10;2.90;;;;;;;17.26;38.50;101621.75;7391408;19;19999;-63
2022/09/23 11:56:53;;;;;;;7.35;2.85;;;;;;;17.21;38.81;101622.84;7395124;19;20002;-62
2022/09/23 11:59:42;;;;;;;7.68;2.88;;;;;;;17.17;38.46;101622.78;7391504;19;20010;-62
2022/09/23 12:02:32;;;;;;;7.57;3.22;;;;;;;17.19;38.34;101616.91;7393048;19;20466;-63
2022/09/23 12:05:24;;;;;;;10.73;3.97;;;;;;;17.25;38.73;101615.41;7396989;19;19998;-63
2022/09/23 12:08:03;;;;;;;5.85;2.78;;;;;;;17.30;38.83;101617.09;7397376;19;20005;-62